To NAV CANADA Home Page Login to a new session Search on AWWS site Feedback and Comments Disclaimer Vers la page française équivalente Tips FAQ What's new on the site To the Forecasts and Observations / NOTAM section To "File a Flight Plan" website Publications and other links Update of the User's profile FIC Telephone Numbers My Weather Data Folder Route Weather Data Regional Weather Data Local Weather Data To the Forecasts and Observations / NOTAM section
Request Generated 08/05/2015 at 08:25:41 UTC . Weather information available at that time is displayed.

METAR/TAF

HAVRE ST-PIERRE/QC    (show WxCam)

SPECI CYGV 050810Z AUTO 15006KT 1 1/4SM -TSRA BR OVC002 16/16 A2968
RMK LTNG DIST ALQDS SLP052 DENSITY ALT 400FT=
SPECI CYGV 050807Z AUTO 14007KT 1SM -RA VCTS BR VV002 16/16 A2968 RMK
LTNG DIST ALQDS SLP052 DENSITY ALT 400FT=
METAR CYGV 050800Z AUTO 14009KT 1/2SM -RA VCTS FG VV002 16/16 A2969
RMK LTNG DIST ALQDS SLP053 DENSITY ALT 500FT=
SPECI CYGV 050759Z AUTO 15009KT 1/2SM VCTS FG VV002 16/16 A2969 RMK
LTNG DIST ALQDS SLP054 DENSITY ALT 500FT=
SPECI CYGV 050744Z AUTO 15005KT 110V180 3/4SM TS BR OVC002 16/16
A2969 RMK LTNG DIST E SE S SLP054 DENSITY ALT 500FT=
SPECI CYGV 050743Z AUTO 14005KT 110V180 3/4SM BR OVC002 16/16 A2969
RMK LTNG DIST E SE S SLP054 DENSITY ALT 500FT=
SPECI CYGV 050736Z AUTO 13006KT 1 3/4SM BR OVC002 17/17 A2969 RMK
LTNG DIST E SE S SLP054 DENSITY ALT 600FT=
SPECI CYGV 050718Z AUTO 13003KT 090V160 2SM BR OVC002 17/17 A2968 RMK
LTNG DIST E SE S PRESRR SLP052 DENSITY ALT 600FT=
METAR CYGV 050700Z AUTO 06006KT 1SM BR VV002 17/17 A2966 RMK LTNG
DIST SE S SLP045 DENSITY ALT 600FT=
SPECI CYGV 050654Z AUTO 08006KT 1SM BR VV002 17/17 A2966 RMK LTNG
DIST SE S TS/LTNG TEMPO UNAVBL SLP045 DENSITY ALT 600FT=
METAR CYGV 050600Z AUTO 06005KT 3/8SM FG VV002 16/16 A2969 RMK SLP054
DENSITY ALT 500FT=

TAF CYGV 050738Z 0508/0520 13005KT 1/2SM FG VV002 TEMPO 0508/0510 2SM
TSRA BR BKN005 OVC010CB
FM051000 VRB03KT 1/2SM FG VV002 TEMPO 0510/0514 6SM BR BKN005
FM051400 22008KT P6SM SCT008 BKN025 TEMPO 0514/0520 5SM -SHRA BR
BKN008
RMK FCST BASED ON AUTO OBS. NXT FCST BY 051400Z=
Your time UTC time
Weather data provided by Environment Canada and NAV CANADA